sensor_id;sensor_type;location;lat;lon;timestamp;temperature;humidity
51215;DHT22;63849;47.546;19.254;2022-11-20T00:00:53;1.60;79.20
51215;DHT22;63849;47.546;19.254;2022-11-20T00:03:19;1.70;79.30
51215;DHT22;63849;47.546;19.254;2022-11-20T00:05:45;1.70;79.40
51215;DHT22;63849;47.546;19.254;2022-11-20T00:08:11;1.80;79.40
51215;DHT22;63849;47.546;19.254;2022-11-20T00:10:37;1.70;79.60
51215;DHT22;63849;47.546;19.254;2022-11-20T00:13:04;1.80;79.20
51215;DHT22;63849;47.546;19.254;2022-11-20T00:15:30;1.60;80.10
51215;DHT22;63849;47.546;19.254;2022-11-20T00:17:55;1.60;80.10
51215;DHT22;63849;47.546;19.254;2022-11-20T00:20:21;1.70;79.60
51215;DHT22;63849;47.546;19.254;2022-11-20T00:22:47;1.70;79.90
51215;DHT22;63849;47.546;19.254;2022-11-20T00:25:13;1.50;80.30
51215;DHT22;63849;47.546;19.254;2022-11-20T00:27:39;1.70;80.00
51215;DHT22;63849;47.546;19.254;2022-11-20T00:30:05;1.80;80.20
51215;DHT22;63849;47.546;19.254;2022-11-20T00:32:31;1.80;79.80
51215;DHT22;63849;47.546;19.254;2022-11-20T00:34:57;1.70;80.10
51215;DHT22;63849;47.546;19.254;2022-11-20T00:37:23;1.80;80.20
51215;DHT22;63849;47.546;19.254;2022-11-20T00:39:49;1.70;80.70
51215;DHT22;63849;47.546;19.254;2022-11-20T00:42:14;1.80;80.40
51215;DHT22;63849;47.546;19.254;2022-11-20T00:44:40;1.70;81.00
51215;DHT22;63849;47.546;19.254;2022-11-20T00:47:06;1.80;81.20
51215;DHT22;63849;47.546;19.254;2022-11-20T00:49:32;1.60;81.50
51215;DHT22;63849;47.546;19.254;2022-11-20T00:51:57;1.60;81.90
51215;DHT22;63849;47.546;19.254;2022-11-20T00:54:23;1.60;82.20
51215;DHT22;63849;47.546;19.254;2022-11-20T00:56:49;1.60;82.30
51215;DHT22;63849;47.546;19.254;2022-11-20T00:59:17;1.50;82.60
51215;DHT22;63849;47.546;19.254;2022-11-20T01:01:43;1.50;82.90
51215;DHT22;63849;47.546;19.254;2022-11-20T01:04:08;1.50;83.00
51215;DHT22;63849;47.546;19.254;2022-11-20T01:06:36;1.30;83.90
51215;DHT22;63849;47.546;19.254;2022-11-20T01:09:13;1.40;84.30
51215;DHT22;63849;47.546;19.254;2022-11-20T01:11:42;1.40;84.40
51215;DHT22;63849;47.546;19.254;2022-11-20T01:14:12;1.50;84.00
51215;DHT22;63849;47.546;19.254;2022-11-20T01:16:41;1.50;84.10
51215;DHT22;63849;47.546;19.254;2022-11-20T01:19:10;1.60;84.00
51215;DHT22;63849;47.546;19.254;2022-11-20T01:21:38;1.40;84.50
51215;DHT22;63849;47.546;19.254;2022-11-20T01:24:06;1.50;84.80
51215;DHT22;63849;47.546;19.254;2022-11-20T01:26:35;1.50;85.10
51215;DHT22;63849;47.546;19.254;2022-11-20T01:29:02;1.50;85.10
51215;DHT22;63849;47.546;19.254;2022-11-20T01:31:34;1.40;85.60
51215;DHT22;63849;47.546;19.254;2022-11-20T01:34:02;1.40;85.70
51215;DHT22;63849;47.546;19.254;2022-11-20T01:36:30;1.40;86.10
51215;DHT22;63849;47.546;19.254;2022-11-20T01:39:02;1.40;86.10
51215;DHT22;63849;47.546;19.254;2022-11-20T01:41:30;1.40;86.10
51215;DHT22;63849;47.546;19.254;2022-11-20T01:44:17;1.40;86.20
51215;DHT22;63849;47.546;19.254;2022-11-20T01:46:56;1.40;86.20
51215;DHT22;63849;47.546;19.254;2022-11-20T01:49:42;1.40;86.40
51215;DHT22;63849;47.546;19.254;2022-11-20T01:52:24;1.40;86.40
51215;DHT22;63849;47.546;19.254;2022-11-20T01:55:07;1.50;86.20
51215;DHT22;63849;47.546;19.254;2022-11-20T01:57:36;1.50;86.30
51215;DHT22;63849;47.546;19.254;2022-11-20T02:00:09;1.50;86.10
51215;DHT22;63849;47.546;19.254;2022-11-20T02:02:37;1.50;86.10
51215;DHT22;63849;47.546;19.254;2022-11-20T02:05:14;1.50;86.20
51215;DHT22;63849;47.546;19.254;2022-11-20T02:07:44;1.50;86.50
51215;DHT22;63849;47.546;19.254;2022-11-20T02:10:10;1.50;86.60
51215;DHT22;63849;47.546;19.254;2022-11-20T02:12:36;1.40;86.40
51215;DHT22;63849;47.546;19.254;2022-11-20T02:15:20;1.50;86.40
51215;DHT22;63849;47.546;19.254;2022-11-20T02:17:46;1.50;86.20
51215;DHT22;63849;47.546;19.254;2022-11-20T02:20:12;1.50;85.90
51215;DHT22;63849;47.546;19.254;2022-11-20T02:22:47;1.50;86.00
51215;DHT22;63849;47.546;19.254;2022-11-20T02:25:16;1.50;86.00
51215;DHT22;63849;47.546;19.254;2022-11-20T02:27:42;1.50;86.20
51215;DHT22;63849;47.546;19.254;2022-11-20T02:30:09;1.50;86.20
51215;DHT22;63849;47.546;19.254;2022-11-20T02:32:37;1.60;85.80
51215;DHT22;63849;47.546;19.254;2022-11-20T02:37:54;1.50;85.60
51215;DHT22;63849;47.546;19.254;2022-11-20T02:40:21;1.50;85.50
51215;DHT22;63849;47.546;19.254;2022-11-20T02:42:47;1.50;85.10
51215;DHT22;63849;47.546;19.254;2022-11-20T02:45:13;1.50;85.20
51215;DHT22;63849;47.546;19.254;2022-11-20T02:47:39;1.50;85.40
51215;DHT22;63849;47.546;19.254;2022-11-20T02:50:05;1.30;85.80
51215;DHT22;63849;47.546;19.254;2022-11-20T02:52:31;1.40;85.60
51215;DHT22;63849;47.546;19.254;2022-11-20T02:54:57;1.50;85.50
51215;DHT22;63849;47.546;19.254;2022-11-20T02:57:22;1.50;85.30
51215;DHT22;63849;47.546;19.254;2022-11-20T02:59:48;1.60;84.90
51215;DHT22;63849;47.546;19.254;2022-11-20T03:02:14;1.70;85.10
51215;DHT22;63849;47.546;19.254;2022-11-20T03:04:39;1.80;84.70
51215;DHT22;63849;47.546;19.254;2022-11-20T03:07:05;1.80;84.30
51215;DHT22;63849;47.546;19.254;2022-11-20T03:09:31;1.80;84.10
51215;DHT22;63849;47.546;19.254;2022-11-20T03:11:57;1.70;83.80
51215;DHT22;63849;47.546;19.254;2022-11-20T03:14:23;1.80;83.80
51215;DHT22;63849;47.546;19.254;2022-11-20T03:16:48;1.80;83.80
51215;DHT22;63849;47.546;19.254;2022-11-20T03:19:14;1.80;83.60
51215;DHT22;63849;47.546;19.254;2022-11-20T03:21:40;1.80;83.70
51215;DHT22;63849;47.546;19.254;2022-11-20T03:24:06;1.70;83.80
51215;DHT22;63849;47.546;19.254;2022-11-20T03:26:32;1.70;84.00
51215;DHT22;63849;47.546;19.254;2022-11-20T03:29:02;1.70;83.70
51215;DHT22;63849;47.546;19.254;2022-11-20T03:31:34;1.80;83.60
51215;DHT22;63849;47.546;19.254;2022-11-20T03:34:00;1.80;83.30
51215;DHT22;63849;47.546;19.254;2022-11-20T03:36:28;1.80;82.80
51215;DHT22;63849;47.546;19.254;2022-11-20T03:38:54;1.90;83.00
51215;DHT22;63849;47.546;19.254;2022-11-20T03:41:26;2.00;82.80
51215;DHT22;63849;47.546;19.254;2022-11-20T03:43:54;2.00;82.70
51215;DHT22;63849;47.546;19.254;2022-11-20T03:46:20;2.20;82.80
51215;DHT22;63849;47.546;19.254;2022-11-20T03:48:47;2.30;82.70
51215;DHT22;63849;47.546;19.254;2022-11-20T03:51:19;2.30;82.40
51215;DHT22;63849;47.546;19.254;2022-11-20T03:53:46;2.30;82.10
51215;DHT22;63849;47.546;19.254;2022-11-20T03:56:15;2.30;82.30
51215;DHT22;63849;47.546;19.254;2022-11-20T03:58:42;2.30;82.50
51215;DHT22;63849;47.546;19.254;2022-11-20T04:01:18;2.20;82.60
51215;DHT22;63849;47.546;19.254;2022-11-20T04:03:45;2.10;82.30
51215;DHT22;63849;47.546;19.254;2022-11-20T04:06:20;2.10;82.20
51215;DHT22;63849;47.546;19.254;2022-11-20T04:08:46;2.10;82.30
51215;DHT22;63849;47.546;19.254;2022-11-20T04:11:24;2.10;83.10
51215;DHT22;63849;47.546;19.254;2022-11-20T04:13:52;2.10;83.70
51215;DHT22;63849;47.546;19.254;2022-11-20T04:16:19;2.10;83.90
51215;DHT22;63849;47.546;19.254;2022-11-20T04:18:45;1.90;84.50
51215;DHT22;63849;47.546;19.254;2022-11-20T04:21:11;1.90;84.90
51215;DHT22;63849;47.546;19.254;2022-11-20T04:23:38;1.80;84.70
51215;DHT22;63849;47.546;19.254;2022-11-20T04:26:09;1.90;84.70
51215;DHT22;63849;47.546;19.254;2022-11-20T04:28:35;1.80;84.90
51215;DHT22;63849;47.546;19.254;2022-11-20T04:31:23;1.80;84.60
51215;DHT22;63849;47.546;19.254;2022-11-20T04:33:48;1.70;85.20
51215;DHT22;63849;47.546;19.254;2022-11-20T04:36:15;1.80;84.80
51215;DHT22;63849;47.546;19.254;2022-11-20T04:38:41;1.70;84.30
51215;DHT22;63849;47.546;19.254;2022-11-20T04:41:11;1.70;84.20
51215;DHT22;63849;47.546;19.254;2022-11-20T04:43:38;1.60;84.60
51215;DHT22;63849;47.546;19.254;2022-11-20T04:46:04;1.50;85.00
51215;DHT22;63849;47.546;19.254;2022-11-20T04:48:30;1.60;84.50
51215;DHT22;63849;47.546;19.254;2022-11-20T04:50:56;1.50;84.80
51215;DHT22;63849;47.546;19.254;2022-11-20T04:53:22;1.60;84.10
51215;DHT22;63849;47.546;19.254;2022-11-20T04:55:50;1.60;84.10
51215;DHT22;63849;47.546;19.254;2022-11-20T04:58:16;1.80;84.10
51215;DHT22;63849;47.546;19.254;2022-11-20T05:00:42;1.80;83.70
51215;DHT22;63849;47.546;19.254;2022-11-20T05:03:08;1.90;83.60
51215;DHT22;63849;47.546;19.254;2022-11-20T05:05:34;1.90;83.20
51215;DHT22;63849;47.546;19.254;2022-11-20T05:08:00;1.80;83.60
51215;DHT22;63849;47.546;19.254;2022-11-20T05:10:26;1.90;83.60
51215;DHT22;63849;47.546;19.254;2022-11-20T05:12:53;1.90;83.70
51215;DHT22;63849;47.546;19.254;2022-11-20T05:15:18;1.80;83.40
51215;DHT22;63849;47.546;19.254;2022-11-20T05:17:51;1.90;83.50
51215;DHT22;63849;47.546;19.254;2022-11-20T05:20:18;1.90;83.20
51215;DHT22;63849;47.546;19.254;2022-11-20T05:22:44;1.90;83.60
51215;DHT22;63849;47.546;19.254;2022-11-20T05:25:10;1.80;83.20
51215;DHT22;63849;47.546;19.254;2022-11-20T05:27:36;1.90;83.50
51215;DHT22;63849;47.546;19.254;2022-11-20T05:30:03;1.90;83.70
51215;DHT22;63849;47.546;19.254;2022-11-20T05:32:29;2.00;83.70
51215;DHT22;63849;47.546;19.254;2022-11-20T05:34:55;2.00;83.80
51215;DHT22;63849;47.546;19.254;2022-11-20T05:37:21;2.00;83.80
51215;DHT22;63849;47.546;19.254;2022-11-20T05:39:46;2.10;83.80
51215;DHT22;63849;47.546;19.254;2022-11-20T05:42:12;2.00;84.00
51215;DHT22;63849;47.546;19.254;2022-11-20T05:45:00;1.90;84.20
51215;DHT22;63849;47.546;19.254;2022-11-20T05:47:28;2.00;84.20
51215;DHT22;63849;47.546;19.254;2022-11-20T05:49:54;2.00;83.40
51215;DHT22;63849;47.546;19.254;2022-11-20T05:52:20;2.10;83.30
51215;DHT22;63849;47.546;19.254;2022-11-20T05:54:46;2.10;83.80
51215;DHT22;63849;47.546;19.254;2022-11-20T05:57:11;2.00;84.20
51215;DHT22;63849;47.546;19.254;2022-11-20T05:59:37;2.00;84.60
51215;DHT22;63849;47.546;19.254;2022-11-20T06:02:03;1.90;84.30
51215;DHT22;63849;47.546;19.254;2022-11-20T06:04:29;1.90;84.30
51215;DHT22;63849;47.546;19.254;2022-11-20T06:06:57;1.90;84.50
51215;DHT22;63849;47.546;19.254;2022-11-20T06:09:22;1.90;84.10
51215;DHT22;63849;47.546;19.254;2022-11-20T06:11:48;2.00;83.80
51215;DHT22;63849;47.546;19.254;2022-11-20T06:14:14;1.90;84.10
51215;DHT22;63849;47.546;19.254;2022-11-20T06:16:40;2.00;84.50
51215;DHT22;63849;47.546;19.254;2022-11-20T06:19:05;2.00;84.10
51215;DHT22;63849;47.546;19.254;2022-11-20T06:21:31;2.10;84.30
51215;DHT22;63849;47.546;19.254;2022-11-20T06:23:57;1.80;83.80
51215;DHT22;63849;47.546;19.254;2022-11-20T06:26:25;1.80;84.60
51215;DHT22;63849;47.546;19.254;2022-11-20T06:28:52;1.80;84.60
51215;DHT22;63849;47.546;19.254;2022-11-20T06:31:20;1.80;84.40
51215;DHT22;63849;47.546;19.254;2022-11-20T06:33:46;1.90;84.70
51215;DHT22;63849;47.546;19.254;2022-11-20T06:36:15;1.90;84.60
51215;DHT22;63849;47.546;19.254;2022-11-20T06:38:41;2.00;84.40
51215;DHT22;63849;47.546;19.254;2022-11-20T06:41:11;2.00;84.30
51215;DHT22;63849;47.546;19.254;2022-11-20T06:43:37;2.10;84.10
51215;DHT22;63849;47.546;19.254;2022-11-20T06:46:03;2.10;84.10
51215;DHT22;63849;47.546;19.254;2022-11-20T06:48:29;2.20;84.20
51215;DHT22;63849;47.546;19.254;2022-11-20T06:50:56;2.30;84.20
51215;DHT22;63849;47.546;19.254;2022-11-20T06:53:23;2.30;84.00
51215;DHT22;63849;47.546;19.254;2022-11-20T06:55:49;2.30;84.00
51215;DHT22;63849;47.546;19.254;2022-11-20T06:58:16;2.50;83.30
51215;DHT22;63849;47.546;19.254;2022-11-20T07:00:42;2.40;82.90
51215;DHT22;63849;47.546;19.254;2022-11-20T07:03:09;2.50;82.70
51215;DHT22;63849;47.546;19.254;2022-11-20T07:05:37;2.40;82.20
51215;DHT22;63849;47.546;19.254;2022-11-20T07:08:12;2.50;82.80
51215;DHT22;63849;47.546;19.254;2022-11-20T07:10:38;2.50;83.10
51215;DHT22;63849;47.546;19.254;2022-11-20T07:13:06;2.40;82.80
51215;DHT22;63849;47.546;19.254;2022-11-20T07:15:32;2.30;82.60
51215;DHT22;63849;47.546;19.254;2022-11-20T07:18:01;2.40;83.00
51215;DHT22;63849;47.546;19.254;2022-11-20T07:20:27;2.50;83.20
51215;DHT22;63849;47.546;19.254;2022-11-20T07:22:57;2.50;82.80
51215;DHT22;63849;47.546;19.254;2022-11-20T07:25:32;2.40;82.60
51215;DHT22;63849;47.546;19.254;2022-11-20T07:27:59;2.50;82.70
51215;DHT22;63849;47.546;19.254;2022-11-20T07:30:25;2.50;83.20
51215;DHT22;63849;47.546;19.254;2022-11-20T07:32:53;2.50;83.80
51215;DHT22;63849;47.546;19.254;2022-11-20T07:35:20;2.50;83.60
51215;DHT22;63849;47.546;19.254;2022-11-20T07:37:46;2.60;83.40
51215;DHT22;63849;47.546;19.254;2022-11-20T07:40:16;2.60;83.50
51215;DHT22;63849;47.546;19.254;2022-11-20T07:42:53;2.60;83.40
51215;DHT22;63849;47.546;19.254;2022-11-20T07:45:21;2.60;83.10
51215;DHT22;63849;47.546;19.254;2022-11-20T07:47:47;2.70;83.10
51215;DHT22;63849;47.546;19.254;2022-11-20T07:50:13;2.60;83.20
51215;DHT22;63849;47.546;19.254;2022-11-20T07:52:40;2.70;83.20
51215;DHT22;63849;47.546;19.254;2022-11-20T07:55:07;2.70;83.50
51215;DHT22;63849;47.546;19.254;2022-11-20T07:57:33;2.70;82.20
51215;DHT22;63849;47.546;19.254;2022-11-20T07:59:58;2.60;82.20
51215;DHT22;63849;47.546;19.254;2022-11-20T08:02:24;2.80;82.90
51215;DHT22;63849;47.546;19.254;2022-11-20T08:04:50;2.80;82.50
51215;DHT22;63849;47.546;19.254;2022-11-20T08:07:16;2.80;82.70
51215;DHT22;63849;47.546;19.254;2022-11-20T08:09:43;2.80;82.30
51215;DHT22;63849;47.546;19.254;2022-11-20T08:15:34;2.80;82.70
51215;DHT22;63849;47.546;19.254;2022-11-20T08:18:05;2.80;83.10
51215;DHT22;63849;47.546;19.254;2022-11-20T08:20:32;2.90;81.70
51215;DHT22;63849;47.546;19.254;2022-11-20T08:23:04;3.00;82.00
51215;DHT22;63849;47.546;19.254;2022-11-20T08:25:32;3.10;81.80
51215;DHT22;63849;47.546;19.254;2022-11-20T08:28:06;3.00;83.80
51215;DHT22;63849;47.546;19.254;2022-11-20T08:30:33;3.20;83.30
51215;DHT22;63849;47.546;19.254;2022-11-20T08:33:09;3.20;83.50
51215;DHT22;63849;47.546;19.254;2022-11-20T08:35:36;3.30;84.30
51215;DHT22;63849;47.546;19.254;2022-11-20T08:38:05;3.50;82.70
51215;DHT22;63849;47.546;19.254;2022-11-20T08:40:32;3.60;82.60
51215;DHT22;63849;47.546;19.254;2022-11-20T08:43:01;3.60;81.90
51215;DHT22;63849;47.546;19.254;2022-11-20T08:45:27;3.60;80.90
51215;DHT22;63849;47.546;19.254;2022-11-20T08:47:53;3.70;81.40
51215;DHT22;63849;47.546;19.254;2022-11-20T08:50:19;3.80;80.90
51215;DHT22;63849;47.546;19.254;2022-11-20T08:52:48;3.80;81.30
51215;DHT22;63849;47.546;19.254;2022-11-20T08:55:14;3.90;80.40
51215;DHT22;63849;47.546;19.254;2022-11-20T08:57:39;3.90;79.70
51215;DHT22;63849;47.546;19.254;2022-11-20T09:00:07;4.00;79.60
51215;DHT22;63849;47.546;19.254;2022-11-20T09:02:33;4.10;79.90
51215;DHT22;63849;47.546;19.254;2022-11-20T09:04:59;4.20;80.20
51215;DHT22;63849;47.546;19.254;2022-11-20T09:07:29;4.30;81.10
51215;DHT22;63849;47.546;19.254;2022-11-20T09:09:55;4.40;81.20
51215;DHT22;63849;47.546;19.254;2022-11-20T09:12:21;4.50;80.10
51215;DHT22;63849;47.546;19.254;2022-11-20T09:14:53;4.50;81.30
51215;DHT22;63849;47.546;19.254;2022-11-20T09:17:22;4.50;79.90
51215;DHT22;63849;47.546;19.254;2022-11-20T09:19:48;4.50;79.70
51215;DHT22;63849;47.546;19.254;2022-11-20T09:22:13;4.50;77.90
51215;DHT22;63849;47.546;19.254;2022-11-20T09:24:39;4.40;78.60
51215;DHT22;63849;47.546;19.254;2022-11-20T09:27:05;4.40;79.50
51215;DHT22;63849;47.546;19.254;2022-11-20T09:29:31;4.50;80.00
51215;DHT22;63849;47.546;19.254;2022-11-20T09:31:57;4.70;79.50
51215;DHT22;63849;47.546;19.254;2022-11-20T09:34:25;4.70;79.70
51215;DHT22;63849;47.546;19.254;2022-11-20T09:36:56;4.60;79.00
51215;DHT22;63849;47.546;19.254;2022-11-20T09:39:24;4.80;79.70
51215;DHT22;63849;47.546;19.254;2022-11-20T09:42:03;4.60;80.00
51215;DHT22;63849;47.546;19.254;2022-11-20T09:55:48;4.80;78.40
51215;DHT22;63849;47.546;19.254;2022-11-20T10:00:57;4.90;79.20
51215;DHT22;63849;47.546;19.254;2022-11-20T10:03:58;4.90;79.20
51215;DHT22;63849;47.546;19.254;2022-11-20T10:06:35;5.00;78.80
51215;DHT22;63849;47.546;19.254;2022-11-20T10:09:32;4.90;78.10
51215;DHT22;63849;47.546;19.254;2022-11-20T10:15:05;5.20;78.80
51215;DHT22;63849;47.546;19.254;2022-11-20T10:31:17;5.40;77.70
51215;DHT22;63849;47.546;19.254;2022-11-20T10:33:51;5.30;75.80
51215;DHT22;63849;47.546;19.254;2022-11-20T10:36:27;5.10;76.20
51215;DHT22;63849;47.546;19.254;2022-11-20T10:39:05;5.20;77.10
51215;DHT22;63849;47.546;19.254;2022-11-20T10:41:37;5.30;76.40
51215;DHT22;63849;47.546;19.254;2022-11-20T10:44:36;5.30;76.60
51215;DHT22;63849;47.546;19.254;2022-11-20T10:47:22;5.50;76.90
51215;DHT22;63849;47.546;19.254;2022-11-20T10:49:54;5.70;76.10
51215;DHT22;63849;47.546;19.254;2022-11-20T10:55:57;5.70;74.00
51215;DHT22;63849;47.546;19.254;2022-11-20T11:01:17;5.80;73.80
51215;DHT22;63849;47.546;19.254;2022-11-20T11:03:44;5.80;74.50
51215;DHT22;63849;47.546;19.254;2022-11-20T11:06:40;5.80;76.00
51215;DHT22;63849;47.546;19.254;2022-11-20T11:09:13;5.80;74.70
51215;DHT22;63849;47.546;19.254;2022-11-20T11:11:44;5.80;75.30
51215;DHT22;63849;47.546;19.254;2022-11-20T11:14:12;5.90;75.40
51215;DHT22;63849;47.546;19.254;2022-11-20T11:16:53;6.00;74.90
51215;DHT22;63849;47.546;19.254;2022-11-20T11:19:20;6.10;75.70
51215;DHT22;63849;47.546;19.254;2022-11-20T11:21:56;6.10;75.70
51215;DHT22;63849;47.546;19.254;2022-11-20T11:24:29;6.10;76.20
51215;DHT22;63849;47.546;19.254;2022-11-20T11:27:00;6.20;76.20
51215;DHT22;63849;47.546;19.254;2022-11-20T11:29:30;6.10;75.10
51215;DHT22;63849;47.546;19.254;2022-11-20T11:32:15;6.00;75.40
51215;DHT22;63849;47.546;19.254;2022-11-20T11:34:59;6.00;75.60
51215;DHT22;63849;47.546;19.254;2022-11-20T11:37:38;6.00;76.20
51215;DHT22;63849;47.546;19.254;2022-11-20T11:40:09;6.10;75.80
51215;DHT22;63849;47.546;19.254;2022-11-20T11:42:47;6.00;76.80
51215;DHT22;63849;47.546;19.254;2022-11-20T11:45:15;5.90;76.30
51215;DHT22;63849;47.546;19.254;2022-11-20T11:52:46;5.90;77.50
51215;DHT22;63849;47.546;19.254;2022-11-20T11:55:21;5.90;76.60
51215;DHT22;63849;47.546;19.254;2022-11-20T11:57:57;5.90;76.80
51215;DHT22;63849;47.546;19.254;2022-11-20T12:00:27;5.80;76.70
51215;DHT22;63849;47.546;19.254;2022-11-20T12:03:09;5.80;77.80
51215;DHT22;63849;47.546;19.254;2022-11-20T12:09:03;5.80;77.60
51215;DHT22;63849;47.546;19.254;2022-11-20T12:11:47;5.90;77.70
51215;DHT22;63849;47.546;19.254;2022-11-20T12:14:24;5.80;78.00
51215;DHT22;63849;47.546;19.254;2022-11-20T12:16:53;5.80;77.20
51215;DHT22;63849;47.546;19.254;2022-11-20T12:19:21;5.80;77.80
51215;DHT22;63849;47.546;19.254;2022-11-20T12:28:05;5.90;77.90
51215;DHT22;63849;47.546;19.254;2022-11-20T12:30:09;5.90;77.90
51215;DHT22;63849;47.546;19.254;2022-11-20T12:35:25;6.10;77.50
51215;DHT22;63849;47.546;19.254;2022-11-20T12:43:46;6.20;78.40
51215;DHT22;63849;47.546;19.254;2022-11-20T12:46:37;6.20;78.70
51215;DHT22;63849;47.546;19.254;2022-11-20T13:08:03;6.40;77.80
51215;DHT22;63849;47.546;19.254;2022-11-20T13:11:07;6.50;78.20
51215;DHT22;63849;47.546;19.254;2022-11-20T13:16:29;6.40;77.90
51215;DHT22;63849;47.546;19.254;2022-11-20T13:18:56;6.40;78.30
51215;DHT22;63849;47.546;19.254;2022-11-20T13:21:39;6.40;78.40
51215;DHT22;63849;47.546;19.254;2022-11-20T13:27:05;6.50;78.90
51215;DHT22;63849;47.546;19.254;2022-11-20T13:29:32;6.50;79.00
51215;DHT22;63849;47.546;19.254;2022-11-20T13:32:21;6.50;78.60
51215;DHT22;63849;47.546;19.254;2022-11-20T13:34:59;6.50;77.60
51215;DHT22;63849;47.546;19.254;2022-11-20T13:37:34;6.40;78.20
51215;DHT22;63849;47.546;19.254;2022-11-20T13:45:41;6.50;76.30
51215;DHT22;63849;47.546;19.254;2022-11-20T13:48:21;6.40;78.10
51215;DHT22;63849;47.546;19.254;2022-11-20T13:59:57;6.20;79.30
51215;DHT22;63849;47.546;19.254;2022-11-20T14:02:26;6.10;80.20
51215;DHT22;63849;47.546;19.254;2022-11-20T14:04:57;6.10;80.60
51215;DHT22;63849;47.546;19.254;2022-11-20T14:07:39;6.00;80.20
51215;DHT22;63849;47.546;19.254;2022-11-20T14:10:23;5.90;80.70
51215;DHT22;63849;47.546;19.254;2022-11-20T14:12:49;5.80;80.30
51215;DHT22;63849;47.546;19.254;2022-11-20T14:15:26;5.70;80.50
51215;DHT22;63849;47.546;19.254;2022-11-20T14:17:52;5.60;80.90
51215;DHT22;63849;47.546;19.254;2022-11-20T14:20:18;5.50;81.20
51215;DHT22;63849;47.546;19.254;2022-11-20T14:22:52;5.50;81.30
51215;DHT22;63849;47.546;19.254;2022-11-20T14:25:19;5.50;81.90
51215;DHT22;63849;47.546;19.254;2022-11-20T14:27:52;5.40;81.60
51215;DHT22;63849;47.546;19.254;2022-11-20T14:30:23;5.40;81.80
51215;DHT22;63849;47.546;19.254;2022-11-20T14:32:50;5.30;81.30
51215;DHT22;63849;47.546;19.254;2022-11-20T14:35:35;5.30;81.90
51215;DHT22;63849;47.546;19.254;2022-11-20T14:38:03;5.30;82.40
51215;DHT22;63849;47.546;19.254;2022-11-20T14:40:32;5.30;82.20
51215;DHT22;63849;47.546;19.254;2022-11-20T14:43:01;5.20;82.00
51215;DHT22;63849;47.546;19.254;2022-11-20T14:45:28;5.10;82.40
51215;DHT22;63849;47.546;19.254;2022-11-20T14:47:56;5.10;82.60
51215;DHT22;63849;47.546;19.254;2022-11-20T14:50:27;5.10;82.50
51215;DHT22;63849;47.546;19.254;2022-11-20T14:52:59;5.00;82.60
51215;DHT22;63849;47.546;19.254;2022-11-20T14:55:53;5.10;82.70
51215;DHT22;63849;47.546;19.254;2022-11-20T14:58:24;5.00;82.50
51215;DHT22;63849;47.546;19.254;2022-11-20T15:03:20;5.00;82.60
51215;DHT22;63849;47.546;19.254;2022-11-20T15:05:48;5.10;82.80
51215;DHT22;63849;47.546;19.254;2022-11-20T15:08:15;5.00;82.70
51215;DHT22;63849;47.546;19.254;2022-11-20T15:10:50;5.00;82.90
51215;DHT22;63849;47.546;19.254;2022-11-20T15:13:32;4.90;83.00
51215;DHT22;63849;47.546;19.254;2022-11-20T15:16:00;4.80;83.30
51215;DHT22;63849;47.546;19.254;2022-11-20T15:18:47;4.80;83.60
51215;DHT22;63849;47.546;19.254;2022-11-20T15:21:18;4.70;83.80
51215;DHT22;63849;47.546;19.254;2022-11-20T15:23:46;4.70;84.00
51215;DHT22;63849;47.546;19.254;2022-11-20T15:26:13;4.70;83.70
51215;DHT22;63849;47.546;19.254;2022-11-20T15:28:44;4.70;83.90
51215;DHT22;63849;47.546;19.254;2022-11-20T15:31:14;4.60;83.90
51215;DHT22;63849;47.546;19.254;2022-11-20T15:33:40;4.50;83.80
51215;DHT22;63849;47.546;19.254;2022-11-20T15:36:06;4.50;84.10
51215;DHT22;63849;47.546;19.254;2022-11-20T15:38:32;4.50;84.20
51215;DHT22;63849;47.546;19.254;2022-11-20T15:40:58;4.50;84.30
51215;DHT22;63849;47.546;19.254;2022-11-20T15:43:24;4.30;84.20
51215;DHT22;63849;47.546;19.254;2022-11-20T15:45:54;4.20;84.40
51215;DHT22;63849;47.546;19.254;2022-11-20T15:48:24;4.20;84.70
51215;DHT22;63849;47.546;19.254;2022-11-20T15:53:20;4.00;84.50
51215;DHT22;63849;47.546;19.254;2022-11-20T15:55:45;4.00;85.00
51215;DHT22;63849;47.546;19.254;2022-11-20T15:58:11;3.90;84.90
51215;DHT22;63849;47.546;19.254;2022-11-20T16:00:37;3.90;85.20
51215;DHT22;63849;47.546;19.254;2022-11-20T16:03:03;3.80;85.20
51215;DHT22;63849;47.546;19.254;2022-11-20T16:05:29;3.80;85.20
51215;DHT22;63849;47.546;19.254;2022-11-20T16:07:55;3.80;85.30
51215;DHT22;63849;47.546;19.254;2022-11-20T16:10:21;3.80;85.20
51215;DHT22;63849;47.546;19.254;2022-11-20T16:12:47;3.80;85.30
51215;DHT22;63849;47.546;19.254;2022-11-20T16:15:31;3.80;85.30
51215;DHT22;63849;47.546;19.254;2022-11-20T16:18:18;3.80;85.30
51215;DHT22;63849;47.546;19.254;2022-11-20T16:20:46;3.60;85.50
51215;DHT22;63849;47.546;19.254;2022-11-20T16:23:12;3.70;85.60
51215;DHT22;63849;47.546;19.254;2022-11-20T16:25:38;3.70;85.30
51215;DHT22;63849;47.546;19.254;2022-11-20T16:28:04;3.60;85.30
51215;DHT22;63849;47.546;19.254;2022-11-20T16:30:32;3.50;85.50
51215;DHT22;63849;47.546;19.254;2022-11-20T16:32:59;3.60;85.80
51215;DHT22;63849;47.546;19.254;2022-11-20T16:35:31;3.50;86.10
51215;DHT22;63849;47.546;19.254;2022-11-20T16:37:58;3.70;86.20
51215;DHT22;63849;47.546;19.254;2022-11-20T16:40:24;3.70;86.00
51215;DHT22;63849;47.546;19.254;2022-11-20T16:42:51;3.70;86.00
51215;DHT22;63849;47.546;19.254;2022-11-20T16:45:17;3.80;85.90
51215;DHT22;63849;47.546;19.254;2022-11-20T16:47:43;3.80;85.90
51215;DHT22;63849;47.546;19.254;2022-11-20T16:50:09;3.70;85.70
51215;DHT22;63849;47.546;19.254;2022-11-20T16:52:35;3.70;85.80
51215;DHT22;63849;47.546;19.254;2022-11-20T16:55:04;3.80;85.70
51215;DHT22;63849;47.546;19.254;2022-11-20T16:57:31;3.80;85.60
51215;DHT22;63849;47.546;19.254;2022-11-20T17:00:19;3.80;85.40
51215;DHT22;63849;47.546;19.254;2022-11-20T17:02:48;3.80;85.10
51215;DHT22;63849;47.546;19.254;2022-11-20T17:05:36;3.70;85.10
51215;DHT22;63849;47.546;19.254;2022-11-20T17:08:02;3.70;85.10
51215;DHT22;63849;47.546;19.254;2022-11-20T17:10:42;3.60;85.20
51215;DHT22;63849;47.546;19.254;2022-11-20T17:13:09;3.50;85.10
51215;DHT22;63849;47.546;19.254;2022-11-20T17:15:35;3.30;85.20
51215;DHT22;63849;47.546;19.254;2022-11-20T17:18:05;3.30;85.40
51215;DHT22;63849;47.546;19.254;2022-11-20T17:20:30;3.30;85.60
51215;DHT22;63849;47.546;19.254;2022-11-20T17:22:56;3.30;85.60
51215;DHT22;63849;47.546;19.254;2022-11-20T17:25:22;3.20;85.40
51215;DHT22;63849;47.546;19.254;2022-11-20T17:27:48;3.10;85.60
51215;DHT22;63849;47.546;19.254;2022-11-20T17:30:14;3.10;85.50
51215;DHT22;63849;47.546;19.254;2022-11-20T17:32:39;3.00;85.50
51215;DHT22;63849;47.546;19.254;2022-11-20T17:35:10;3.00;85.50